createdAt,value
2024-03-07T00:01:15.102Z,8.65
2024-03-07T00:04:30.061Z,8.53
2024-03-07T00:07:32.015Z,8.56
2024-03-07T00:10:47.085Z,8.63
2024-03-07T00:14:02.018Z,8.60
2024-03-07T00:17:17.061Z,8.64
2024-03-07T00:20:26.141Z,8.63
2024-03-07T00:23:34.697Z,8.64
2024-03-07T00:26:43.055Z,8.61
2024-03-07T00:29:51.625Z,8.59
2024-03-07T00:33:06.097Z,8.62
2024-03-07T00:36:14.559Z,8.59
2024-03-07T00:39:23.020Z,8.58
2024-03-07T00:42:38.056Z,8.57
2024-03-07T00:45:40.153Z,8.59
2024-03-07T00:49:02.041Z,8.56
2024-03-07T00:52:04.337Z,8.54
2024-03-07T00:55:19.072Z,8.55
2024-03-07T00:58:21.261Z,8.53
2024-03-07T01:01:36.092Z,8.52
2024-03-07T01:04:44.804Z,8.55
2024-03-07T01:07:54.026Z,8.52
2024-03-07T01:11:02.945Z,8.54
2024-03-07T01:14:11.072Z,8.54
2024-03-07T01:17:26.045Z,8.55
2024-03-07T01:20:27.949Z,8.52
2024-03-07T01:23:43.071Z,8.48
2024-03-07T01:26:58.127Z,8.45
2024-03-07T01:30:07.061Z,8.47
2024-03-07T01:33:16.097Z,8.41
2024-03-07T01:36:31.026Z,8.41
2024-03-07T01:39:39.947Z,8.40
2024-03-07T01:42:49.077Z,8.35
2024-03-07T01:45:58.597Z,8.36
2024-03-07T01:49:14.046Z,8.21
2024-03-07T01:52:22.968Z,8.24
2024-03-07T01:55:32.054Z,8.22
2024-03-07T01:58:50.038Z,8.23
2024-03-07T02:01:52.387Z,8.17
2024-03-07T02:05:14.094Z,8.20
2024-03-07T02:08:29.087Z,8.10
2024-03-07T02:11:31.529Z,8.10
2024-03-07T02:14:46.166Z,8.04
2024-03-07T02:18:01.146Z,8.03
2024-03-07T02:21:16.043Z,8.05
2024-03-07T02:24:17.962Z,8.03
2024-03-07T02:27:33.048Z,7.94
2024-03-07T02:30:48.038Z,8.01
2024-03-07T02:33:50.178Z,8.10
2024-03-07T02:37:05.094Z,8.06
2024-03-07T02:40:22.056Z,8.05
2024-03-07T02:43:24.204Z,8.05
2024-03-07T02:46:39.055Z,8.05
2024-03-07T02:49:47.273Z,8.01
2024-03-07T02:53:02.070Z,8.06
2024-03-07T02:56:11.049Z,8.03
2024-03-07T02:59:26.067Z,8.06
2024-03-07T03:02:35.103Z,7.97
2024-03-07T03:05:50.126Z,7.91
2024-03-07T03:09:05.060Z,7.94
2024-03-07T03:12:14.129Z,7.86
2024-03-07T03:15:29.090Z,7.74
2024-03-07T03:18:30.996Z,7.74
2024-03-07T03:21:46.053Z,7.73
2024-03-07T03:24:55.052Z,7.67
2024-03-07T03:28:11.277Z,7.58
2024-03-07T03:31:20.040Z,7.50
2024-03-07T03:34:35.089Z,7.45
2024-03-07T03:37:37.238Z,7.47
2024-03-07T03:40:52.055Z,7.38
2024-03-07T03:43:54.322Z,7.32
2024-03-07T03:47:09.039Z,7.31
2024-03-07T03:50:24.640Z,7.30
2024-03-07T03:53:33.127Z,7.34
2024-03-07T03:56:41.856Z,7.29
2024-03-07T03:59:51.238Z,7.34
2024-03-07T04:03:06.064Z,7.36
2024-03-07T04:06:08.361Z,7.33
2024-03-07T04:09:23.032Z,7.28
2024-03-07T04:12:31.877Z,7.29
2024-03-07T04:15:47.038Z,7.24
2024-03-07T04:19:02.043Z,7.21
2024-03-07T04:22:03.975Z,7.17
2024-03-07T04:25:19.219Z,7.16
2024-03-07T04:28:28.043Z,7.12
2024-03-07T04:31:36.689Z,7.09
2024-03-07T04:34:45.037Z,7.05
2024-03-07T04:38:00.071Z,6.99
2024-03-07T04:41:01.954Z,6.97
2024-03-07T04:44:17.096Z,6.93
2024-03-07T04:47:25.649Z,6.87
2024-03-07T04:50:47.118Z,6.86
2024-03-07T04:53:49.410Z,6.79
2024-03-07T04:57:04.058Z,6.81
2024-03-07T05:00:18.684Z,6.85
2024-03-07T05:03:28.539Z,6.83
2024-03-07T05:06:37.046Z,6.90
2024-03-07T05:09:45.868Z,6.88
2024-03-07T05:12:54.117Z,6.89
2024-03-07T05:16:09.102Z,6.87
2024-03-07T05:19:18.033Z,6.88
2024-03-07T05:22:26.057Z,6.93
2024-03-07T05:25:34.976Z,7.00
2024-03-07T05:28:50.064Z,6.99
2024-03-07T05:32:28.393Z,6.95
2024-03-07T05:35:43.084Z,7.00
2024-03-07T05:38:52.124Z,6.95
2024-03-07T05:42:01.433Z,6.96
2024-03-07T05:45:17.077Z,7.03
2024-03-07T05:48:32.146Z,6.98
2024-03-07T05:51:47.096Z,6.98
2024-03-07T05:54:49.340Z,6.95
2024-03-07T05:58:04.061Z,6.96
2024-03-07T06:01:12.087Z,6.93
2024-03-07T06:04:20.656Z,7.01
2024-03-07T06:07:35.061Z,7.05
2024-03-07T06:10:51.062Z,7.02
2024-03-07T06:13:53.109Z,7.03
2024-03-07T06:17:08.053Z,7.01
2024-03-07T06:20:23.138Z,7.05
2024-03-07T06:23:32.082Z,7.12
2024-03-07T06:26:47.683Z,7.18
2024-03-07T06:29:50.065Z,7.15
2024-03-07T06:33:05.132Z,7.29
2024-03-07T06:36:14.137Z,7.30
2024-03-07T06:39:22.592Z,7.34
2024-03-07T06:42:31.081Z,7.26
2024-03-07T06:45:41.135Z,7.24
2024-03-07T06:48:56.153Z,7.27
2024-03-07T06:52:12.039Z,7.20
2024-03-07T06:55:18.380Z,7.15
2024-03-07T06:58:34.059Z,7.27
2024-03-07T07:01:49.159Z,7.21
2024-03-07T07:04:57.953Z,7.25
2024-03-07T07:08:13.180Z,7.18
2024-03-07T07:11:15.525Z,7.24
2024-03-07T07:14:30.158Z,7.38
2024-03-07T07:17:47.119Z,7.38
2024-03-07T07:20:49.339Z,7.36
2024-03-07T07:24:04.103Z,7.30
2024-03-07T07:27:13.077Z,7.36
2024-03-07T07:30:30.048Z,7.40
2024-03-07T07:33:38.174Z,7.45
2024-03-07T07:36:46.630Z,7.39
2024-03-07T07:39:55.071Z,7.38
2024-03-07T07:43:04.118Z,7.33
2024-03-07T07:46:13.079Z,7.33
2024-03-07T07:49:28.438Z,7.37
2024-03-07T07:52:37.088Z,7.23
2024-03-07T07:55:45.901Z,7.20
2024-03-07T07:58:54.060Z,7.29
2024-03-07T08:02:09.061Z,7.33
2024-03-07T08:05:21.719Z,7.39
2024-03-07T08:08:30.134Z,7.46
2024-03-07T08:11:38.752Z,7.45
2024-03-07T08:14:47.071Z,7.49
2024-03-07T08:17:56.809Z,7.53
2024-03-07T08:21:12.183Z,7.44
2024-03-07T08:24:27.076Z,7.52
2024-03-07T08:27:36.058Z,7.50
2024-03-07T08:30:44.928Z,7.53
2024-03-07T08:34:00.128Z,7.48
2024-03-07T08:37:08.874Z,7.60
2024-03-07T08:40:27.415Z,7.66
2024-03-07T08:43:31.054Z,7.64
2024-03-07T08:46:47.097Z,7.68
2024-03-07T08:50:10.043Z,7.70
2024-03-07T08:53:19.129Z,7.68
2024-03-07T08:56:34.149Z,7.50
2024-03-07T08:59:36.457Z,7.52
2024-03-07T09:02:52.120Z,7.66
2024-03-07T09:06:01.115Z,7.60
2024-03-07T09:09:16.058Z,7.64
2024-03-07T09:12:18.225Z,7.69
2024-03-07T09:15:33.053Z,7.64
2024-03-07T09:18:48.067Z,7.75
2024-03-07T09:22:03.055Z,7.78
2024-03-07T09:25:12.201Z,7.75
2024-03-07T09:28:21.057Z,7.70
2024-03-07T09:31:36.075Z,7.81
2024-03-07T09:34:44.975Z,7.86
2024-03-07T09:37:54.098Z,7.91
2024-03-07T09:41:02.634Z,7.97
2024-03-07T09:44:12.087Z,8.03
2024-03-07T09:47:21.614Z,8.03
2024-03-07T09:50:44.234Z,8.09
2024-03-07T09:54:01.152Z,8.11
2024-03-07T09:57:04.225Z,8.20
2024-03-07T10:00:21.052Z,8.27
2024-03-07T10:03:38.063Z,8.20
2024-03-07T10:06:40.329Z,8.09
2024-03-07T10:09:56.164Z,8.20
2024-03-07T10:12:58.368Z,8.15
2024-03-07T10:16:14.074Z,8.14
2024-03-07T10:19:22.502Z,8.17
2024-03-07T10:22:30.948Z,8.07
2024-03-07T10:25:39.071Z,8.11
2024-03-07T10:28:49.209Z,8.15
2024-03-07T10:32:04.791Z,8.13
2024-03-07T10:35:14.736Z,8.07
2024-03-07T10:38:30.078Z,8.13
2024-03-07T10:41:43.925Z,8.07
2024-03-07T10:45:04.105Z,8.07
2024-03-07T10:48:23.549Z,8.09
2024-03-07T10:51:47.096Z,8.15
2024-03-07T10:55:17.616Z,8.10
2024-03-07T10:59:05.068Z,8.10
2024-03-07T11:02:32.205Z,8.00
2024-03-07T11:05:41.239Z,8.07
2024-03-07T11:08:57.103Z,8.03
2024-03-07T11:12:01.279Z,8.11
2024-03-07T11:15:18.143Z,8.19
2024-03-07T11:18:27.104Z,8.20
2024-03-07T11:21:41.982Z,8.22
2024-03-07T11:25:11.081Z,8.30
2024-03-07T11:28:24.089Z,8.29
2024-03-07T11:31:32.705Z,8.29
2024-03-07T11:34:49.209Z,8.32
2024-03-07T11:37:58.051Z,8.28
2024-03-07T11:41:13.116Z,8.28
2024-03-07T11:44:21.747Z,8.26
2024-03-07T11:47:34.286Z,8.28
2024-03-07T11:50:49.686Z,8.35
2024-03-07T11:54:05.131Z,8.25
2024-03-07T11:57:15.063Z,8.22
2024-03-07T12:00:23.706Z,8.14
2024-03-07T12:03:32.077Z,8.27
2024-03-07T12:06:47.077Z,8.36
2024-03-07T12:09:50.666Z,8.26
2024-03-07T12:13:05.068Z,8.22
2024-03-07T12:16:07.414Z,8.18
2024-03-07T12:19:23.300Z,8.19
2024-03-07T12:22:32.330Z,8.10
2024-03-07T12:25:40.750Z,8.10
2024-03-07T12:28:56.140Z,8.03
2024-03-07T12:31:58.563Z,8.08
2024-03-07T12:35:14.129Z,8.08
2024-03-07T12:38:16.674Z,8.08
2024-03-07T12:41:31.109Z,8.11
2024-03-07T12:44:50.128Z,8.19
2024-03-07T12:48:14.152Z,8.19
2024-03-07T12:51:29.166Z,8.27
2024-03-07T12:54:45.057Z,8.26
2024-03-07T12:57:54.134Z,8.37
2024-03-07T13:01:03.222Z,8.44
2024-03-07T13:04:19.075Z,8.56
2024-03-07T13:07:20.972Z,8.47
2024-03-07T13:10:36.091Z,8.27
2024-03-07T13:13:44.990Z,8.14
2024-03-07T13:17:00.086Z,8.34
2024-03-07T13:20:21.137Z,8.50
2024-03-07T13:23:23.556Z,8.41
2024-03-07T13:26:39.129Z,8.29
2024-03-07T13:29:54.093Z,8.39
2024-03-07T13:33:00.709Z,8.49
2024-03-07T13:36:17.119Z,8.45
2024-03-07T13:39:32.927Z,8.44
2024-03-07T13:42:48.050Z,8.33
2024-03-07T13:45:56.056Z,8.34
2024-03-07T13:49:18.099Z,8.35
2024-03-07T13:52:33.066Z,8.34
2024-03-07T13:56:19.222Z,8.21
2024-03-07T14:00:10.110Z,8.18
2024-03-07T14:03:47.086Z,8.22
2024-03-07T14:07:13.090Z,8.15
2024-03-07T14:10:43.109Z,8.13
2024-03-07T14:14:52.108Z,8.16
2024-03-07T14:18:31.161Z,8.13
2024-03-07T14:21:46.090Z,8.15
2024-03-07T14:25:27.141Z,8.16
2024-03-07T14:28:49.094Z,8.09
2024-03-07T14:32:04.122Z,8.10
2024-03-07T14:36:03.101Z,7.99
2024-03-07T14:39:12.026Z,8.04
2024-03-07T14:42:22.097Z,8.06
2024-03-07T14:45:43.070Z,7.94
2024-03-07T14:48:52.135Z,7.87
2024-03-07T14:52:08.313Z,7.84
2024-03-07T14:55:24.095Z,7.84
2024-03-07T14:58:32.982Z,7.80
2024-03-07T15:01:48.130Z,7.75
2024-03-07T15:04:50.145Z,7.72
2024-03-07T15:08:05.111Z,7.74
2024-03-07T15:11:16.123Z,7.62
2024-03-07T15:14:37.689Z,7.59
2024-03-07T15:17:51.158Z,7.61
2024-03-07T15:21:06.365Z,7.63
2024-03-07T15:24:14.981Z,7.65
2024-03-07T15:27:24.299Z,7.64
2024-03-07T15:30:39.081Z,7.64
2024-03-07T15:33:40.991Z,7.46
2024-03-07T15:37:08.065Z,7.43
2024-03-07T15:40:17.930Z,7.40
2024-03-07T15:43:27.085Z,7.37
2024-03-07T15:46:42.063Z,7.38
2024-03-07T15:49:57.076Z,7.39
2024-03-07T15:53:05.638Z,7.40
2024-03-07T15:56:20.133Z,7.35
2024-03-07T15:59:29.038Z,7.30
2024-03-07T16:02:38.145Z,7.18
2024-03-07T16:05:48.534Z,7.18
2024-03-07T16:08:57.265Z,7.06
2024-03-07T16:12:05.873Z,7.09
2024-03-07T16:18:25.160Z,7.06
2024-03-07T16:21:40.117Z,6.99
2024-03-07T16:24:48.922Z,6.90
2024-03-07T16:27:59.094Z,6.85
2024-03-07T16:31:10.076Z,6.86
2024-03-07T16:34:25.092Z,6.85
2024-03-07T16:37:27.324Z,6.89
2024-03-07T16:40:43.193Z,6.82
2024-03-07T16:43:53.074Z,6.78
2024-03-07T16:47:02.065Z,6.73
2024-03-07T16:50:27.251Z,6.76
2024-03-07T16:53:36.101Z,6.78
2024-03-07T16:56:44.796Z,6.82
2024-03-07T17:00:00.199Z,6.84
2024-03-07T17:03:17.155Z,6.88
2024-03-07T17:06:32.089Z,6.79
2024-03-07T17:09:41.083Z,6.79
2024-03-07T17:12:50.772Z,6.70
2024-03-07T17:16:06.115Z,6.75
2024-03-07T17:19:14.969Z,6.63
2024-03-07T17:22:30.093Z,6.63
2024-03-07T17:25:38.575Z,6.65
2024-03-07T17:28:47.090Z,6.68
2024-03-07T17:32:02.134Z,6.70
2024-03-07T17:35:10.583Z,6.60
2024-03-07T17:38:19.085Z,6.67
2024-03-07T17:41:27.746Z,6.60
2024-03-07T17:44:45.127Z,6.60
2024-03-07T17:47:51.757Z,6.53
2024-03-07T17:51:14.122Z,6.55
2024-03-07T17:54:22.681Z,6.51
2024-03-07T17:57:37.104Z,6.49
2024-03-07T18:00:52.167Z,6.43
2024-03-07T18:04:01.094Z,6.48
2024-03-07T18:07:09.685Z,6.42
2024-03-07T18:10:19.415Z,6.42
2024-03-07T18:13:34.176Z,6.40
2024-03-07T18:16:36.211Z,6.41
2024-03-07T18:19:52.097Z,6.33
2024-03-07T18:23:01.895Z,6.41
2024-03-07T18:26:11.097Z,6.30
2024-03-07T18:29:27.625Z,6.23
2024-03-07T18:32:29.757Z,6.28
2024-03-07T18:35:45.090Z,6.17
2024-03-07T18:38:54.658Z,6.15
2024-03-07T18:42:11.558Z,6.19
2024-03-07T18:45:24.579Z,6.11
2024-03-07T18:48:40.484Z,5.94
2024-03-07T18:51:55.314Z,5.95
2024-03-07T18:55:04.594Z,5.94
2024-03-07T18:58:19.691Z,5.99
2024-03-07T19:01:35.466Z,5.97
2024-03-07T19:04:41.318Z,5.97
2024-03-07T19:07:58.528Z,6.01
2024-03-07T19:11:07.688Z,6.02
2024-03-07T19:14:17.231Z,6.06
2024-03-07T19:17:32.216Z,6.10
2024-03-07T19:20:45.598Z,6.10
2024-03-07T19:24:02.843Z,6.09
2024-03-07T19:27:12.555Z,6.06
2024-03-07T19:30:21.598Z,6.08
2024-03-07T19:33:36.660Z,6.12
2024-03-07T19:36:39.230Z,6.10
2024-03-07T19:39:54.116Z,6.11
2024-03-07T19:43:02.722Z,6.11
2024-03-07T19:46:11.142Z,5.99
2024-03-07T19:49:20.367Z,5.96
2024-03-07T19:52:42.145Z,5.87
2024-03-07T19:55:51.650Z,5.89
2024-03-07T19:59:00.070Z,5.72
2024-03-07T20:02:15.601Z,5.81
2024-03-07T20:05:18.827Z,5.82
2024-03-07T20:08:34.503Z,5.77
2024-03-07T20:11:50.315Z,5.75
2024-03-07T20:15:05.724Z,5.79
2024-03-07T20:18:21.913Z,5.80
2024-03-07T20:21:37.622Z,5.78
2024-03-07T20:24:46.104Z,5.63
2024-03-07T20:27:57.576Z,5.73
2024-03-07T20:31:12.588Z,5.71
2024-03-07T20:34:21.094Z,5.73
2024-03-07T20:37:30.097Z,5.76
2024-03-07T20:40:39.212Z,5.82
2024-03-07T20:43:48.432Z,5.81
2024-03-07T20:47:03.109Z,5.73
2024-03-07T20:50:12.911Z,5.69
2024-03-07T20:53:28.130Z,5.71
2024-03-07T20:56:30.227Z,5.63
2024-03-07T20:59:45.156Z,5.61
2024-03-07T21:03:01.139Z,5.55
2024-03-07T21:06:10.714Z,5.59
2024-03-07T21:09:20.932Z,5.57
2024-03-07T21:12:36.545Z,5.48
2024-03-07T21:15:45.496Z,5.39
2024-03-07T21:18:55.476Z,5.46
2024-03-07T21:22:03.914Z,5.39
2024-03-07T21:25:21.184Z,5.42
2024-03-07T21:28:30.034Z,5.44
2024-03-07T21:31:45.059Z,5.41
2024-03-07T21:34:47.087Z,5.45
2024-03-07T21:38:02.137Z,5.49
2024-03-07T21:41:04.262Z,5.46
2024-03-07T21:44:19.091Z,5.50
2024-03-07T21:47:34.217Z,5.42
2024-03-07T21:50:43.351Z,5.30
2024-03-07T21:53:58.113Z,5.32
2024-03-07T21:57:01.287Z,5.27
2024-03-07T22:00:17.934Z,5.28
2024-03-07T22:03:33.116Z,5.31
2024-03-07T22:06:45.217Z,5.35
2024-03-07T22:10:00.086Z,5.39
2024-03-07T22:13:02.271Z,5.40
2024-03-07T22:16:17.071Z,5.41
2024-03-07T22:19:19.713Z,5.39
2024-03-07T22:22:34.063Z,5.36
2024-03-07T22:25:36.018Z,5.39
2024-03-07T22:28:51.063Z,5.36
2024-03-07T22:31:59.839Z,5.42
2024-03-07T22:35:17.072Z,5.37
2024-03-07T22:38:32.101Z,5.30
2024-03-07T22:41:33.954Z,5.36
2024-03-07T22:44:49.113Z,5.37
2024-03-07T22:48:04.189Z,5.35
2024-03-07T22:51:19.439Z,5.28
2024-03-07T22:54:28.077Z,5.20
2024-03-07T22:57:36.902Z,5.21
2024-03-07T23:00:52.160Z,5.29
2024-03-07T23:03:54.088Z,5.21
2024-03-07T23:07:09.057Z,5.14
2024-03-07T23:10:11.752Z,5.23
2024-03-07T23:13:27.088Z,5.20
2024-03-07T23:16:29.191Z,5.31
2024-03-07T23:19:44.103Z,5.35
2024-03-07T23:22:53.108Z,5.36
2024-03-07T23:26:09.126Z,5.30
2024-03-07T23:29:24.138Z,5.29
2024-03-07T23:32:33.154Z,5.27
2024-03-07T23:35:42.464Z,5.23
2024-03-07T23:38:51.123Z,5.22
2024-03-07T23:42:06.212Z,5.25
2024-03-07T23:45:08.908Z,5.19
2024-03-07T23:48:24.130Z,5.13
2024-03-07T23:51:39.087Z,5.20
2024-03-07T23:54:54.080Z,5.20
2024-03-07T23:58:09.096Z,5.19
